FBFT

Francistown Airport

Francistown, Botswana
METAR FBFT 250500Z VRB01KT CAVOK 06/04 Q1021
Observed Flight Rules
May-25 @ 05:00 UTC (29 minutes ago) Visual Flight Rules
Wind Visibility Clouds
Variable at 1 knots 10,000+ meters
  • Clear skies
Temperatures Readings
Current 6°C / 43°F
Dewpoint 4°C / 39°F
Humidity 87%
Altimeter 30.15" Hg
Pressure 1021 hPa
Elevation 1000
METAR FBFT 250500Z VRB01KT CAVOK 06/04 Q1021
Observed Flight Rules
May-25 @ 05:00 UTC
(29 minutes ago)
VFR
Wind Visibility
Variable at 1 knots 10,000+ meters
Clouds
  • Clear skies
Temperature Dewpoint
6°C / 43°F 4°C / 39°F
Humidity Altimeter Pressure
87% 30.15" Hg 1021 hPa